sensor_id;sensor_type;location;lat;lon;timestamp;P1;durP1;ratioP1;P2;durP2;ratioP2
23155;SDS011;11746;50.876;4.246;2023-03-19T00:02:05;4.60;;;2.65;;
23155;SDS011;11746;50.876;4.246;2023-03-19T00:04:33;4.70;;;2.28;;
23155;SDS011;11746;50.876;4.246;2023-03-19T00:07:01;5.07;;;2.38;;
23155;SDS011;11746;50.876;4.246;2023-03-19T00:09:27;4.20;;;2.40;;
23155;SDS011;11746;50.876;4.246;2023-03-19T00:11:53;3.95;;;2.40;;
23155;SDS011;11746;50.876;4.246;2023-03-19T00:14:18;6.50;;;2.28;;
23155;SDS011;11746;50.876;4.246;2023-03-19T00:16:44;4.03;;;2.55;;
23155;SDS011;11746;50.876;4.246;2023-03-19T00:19:10;5.28;;;2.58;;
23155;SDS011;11746;50.876;4.246;2023-03-19T00:21:36;3.78;;;2.47;;
23155;SDS011;11746;50.876;4.246;2023-03-19T00:24:01;3.97;;;2.42;;
23155;SDS011;11746;50.876;4.246;2023-03-19T00:26:31;3.97;;;2.50;;
23155;SDS011;11746;50.876;4.246;2023-03-19T00:28:58;3.60;;;2.20;;
23155;SDS011;11746;50.876;4.246;2023-03-19T00:31:25;4.03;;;2.40;;
23155;SDS011;11746;50.876;4.246;2023-03-19T00:33:52;5.57;;;3.05;;
23155;SDS011;11746;50.876;4.246;2023-03-19T00:36:18;5.43;;;2.97;;
23155;SDS011;11746;50.876;4.246;2023-03-19T00:38:47;5.68;;;3.17;;
23155;SDS011;11746;50.876;4.246;2023-03-19T00:41:13;4.10;;;2.83;;
23155;SDS011;11746;50.876;4.246;2023-03-19T00:43:41;3.30;;;2.35;;
23155;SDS011;11746;50.876;4.246;2023-03-19T00:46:07;5.68;;;2.90;;
23155;SDS011;11746;50.876;4.246;2023-03-19T00:48:32;4.75;;;2.80;;
23155;SDS011;11746;50.876;4.246;2023-03-19T00:51:04;5.68;;;3.10;;
23155;SDS011;11746;50.876;4.246;2023-03-19T00:53:32;5.82;;;2.90;;
23155;SDS011;11746;50.876;4.246;2023-03-19T00:56:01;4.93;;;3.03;;
23155;SDS011;11746;50.876;4.246;2023-03-19T00:58:26;3.75;;;3.20;;
23155;SDS011;11746;50.876;4.246;2023-03-19T01:00:52;7.30;;;3.15;;
23155;SDS011;11746;50.876;4.246;2023-03-19T01:03:18;4.30;;;3.20;;
23155;SDS011;11746;50.876;4.246;2023-03-19T01:05:47;4.72;;;3.17;;
23155;SDS011;11746;50.876;4.246;2023-03-19T01:08:16;4.03;;;3.08;;
23155;SDS011;11746;50.876;4.246;2023-03-19T01:10:43;3.47;;;2.80;;
23155;SDS011;11746;50.876;4.246;2023-03-19T01:13:11;4.88;;;2.78;;
23155;SDS011;11746;50.876;4.246;2023-03-19T01:15:37;5.32;;;3.60;;
23155;SDS011;11746;50.876;4.246;2023-03-19T01:18:07;4.70;;;2.92;;
23155;SDS011;11746;50.876;4.246;2023-03-19T01:20:35;5.90;;;3.45;;
23155;SDS011;11746;50.876;4.246;2023-03-19T01:23:04;4.55;;;3.03;;
23155;SDS011;11746;50.876;4.246;2023-03-19T01:25:31;4.95;;;3.20;;
23155;SDS011;11746;50.876;4.246;2023-03-19T01:27:57;5.63;;;3.20;;
23155;SDS011;11746;50.876;4.246;2023-03-19T01:30:23;4.53;;;2.83;;
23155;SDS011;11746;50.876;4.246;2023-03-19T01:32:51;5.15;;;3.00;;
23155;SDS011;11746;50.876;4.246;2023-03-19T01:35:17;3.47;;;2.95;;
23155;SDS011;11746;50.876;4.246;2023-03-19T01:37:42;4.63;;;2.95;;
23155;SDS011;11746;50.876;4.246;2023-03-19T01:40:11;6.63;;;3.13;;
23155;SDS011;11746;50.876;4.246;2023-03-19T01:43:41;5.03;;;3.40;;
23155;SDS011;11746;50.876;4.246;2023-03-19T01:45:43;5.65;;;3.53;;
23155;SDS011;11746;50.876;4.246;2023-03-19T01:48:23;5.10;;;3.20;;
23155;SDS011;11746;50.876;4.246;2023-03-19T01:50:53;4.68;;;3.50;;
23155;SDS011;11746;50.876;4.246;2023-03-19T01:53:21;4.38;;;3.33;;
23155;SDS011;11746;50.876;4.246;2023-03-19T01:55:54;4.40;;;3.20;;
23155;SDS011;11746;50.876;4.246;2023-03-19T01:58:26;4.38;;;3.08;;
23155;SDS011;11746;50.876;4.246;2023-03-19T02:00:53;4.75;;;3.30;;
23155;SDS011;11746;50.876;4.246;2023-03-19T02:03:19;4.35;;;3.20;;
23155;SDS011;11746;50.876;4.246;2023-03-19T02:05:46;4.38;;;2.72;;
23155;SDS011;11746;50.876;4.246;2023-03-19T02:08:13;6.05;;;3.30;;
23155;SDS011;11746;50.876;4.246;2023-03-19T02:10:41;3.88;;;3.00;;
23155;SDS011;11746;50.876;4.246;2023-03-19T02:13:11;4.13;;;3.35;;
23155;SDS011;11746;50.876;4.246;2023-03-19T02:15:37;6.10;;;3.70;;
23155;SDS011;11746;50.876;4.246;2023-03-19T02:18:05;5.45;;;3.30;;
23155;SDS011;11746;50.876;4.246;2023-03-19T02:26:03;6.45;;;4.03;;
23155;SDS011;11746;50.876;4.246;2023-03-19T02:28:42;6.32;;;4.00;;
23155;SDS011;11746;50.876;4.246;2023-03-19T02:31:10;4.88;;;3.90;;
23155;SDS011;11746;50.876;4.246;2023-03-19T02:33:39;7.35;;;4.05;;
23155;SDS011;11746;50.876;4.246;2023-03-19T02:36:09;6.13;;;4.65;;
23155;SDS011;11746;50.876;4.246;2023-03-19T02:38:38;6.78;;;4.40;;
23155;SDS011;11746;50.876;4.246;2023-03-19T02:41:07;5.78;;;4.40;;
23155;SDS011;11746;50.876;4.246;2023-03-19T02:43:34;5.63;;;4.35;;
23155;SDS011;11746;50.876;4.246;2023-03-19T02:46:02;7.57;;;4.13;;
23155;SDS011;11746;50.876;4.246;2023-03-19T02:48:29;5.78;;;4.25;;
23155;SDS011;11746;50.876;4.246;2023-03-19T02:50:56;7.68;;;4.68;;
23155;SDS011;11746;50.876;4.246;2023-03-19T02:53:22;6.28;;;4.55;;
23155;SDS011;11746;50.876;4.246;2023-03-19T02:55:48;6.43;;;4.38;;
23155;SDS011;11746;50.876;4.246;2023-03-19T02:58:14;6.50;;;4.65;;
23155;SDS011;11746;50.876;4.246;2023-03-19T03:00:42;7.38;;;4.82;;
23155;SDS011;11746;50.876;4.246;2023-03-19T03:03:09;6.55;;;5.18;;
23155;SDS011;11746;50.876;4.246;2023-03-19T03:05:35;5.38;;;4.82;;
23155;SDS011;11746;50.876;4.246;2023-03-19T03:08:00;6.40;;;4.90;;
23155;SDS011;11746;50.876;4.246;2023-03-19T03:10:30;6.70;;;5.72;;
23155;SDS011;11746;50.876;4.246;2023-03-19T03:12:56;7.78;;;5.28;;
23155;SDS011;11746;50.876;4.246;2023-03-19T03:15:22;8.02;;;6.13;;
23155;SDS011;11746;50.876;4.246;2023-03-19T03:17:48;8.50;;;5.78;;
23155;SDS011;11746;50.876;4.246;2023-03-19T03:20:14;9.98;;;5.28;;
23155;SDS011;11746;50.876;4.246;2023-03-19T03:22:41;7.10;;;5.60;;
23155;SDS011;11746;50.876;4.246;2023-03-19T03:25:08;8.45;;;5.57;;
23155;SDS011;11746;50.876;4.246;2023-03-19T03:27:37;7.03;;;5.20;;
23155;SDS011;11746;50.876;4.246;2023-03-19T03:30:06;7.85;;;5.82;;
23155;SDS011;11746;50.876;4.246;2023-03-19T03:32:33;8.30;;;5.88;;
23155;SDS011;11746;50.876;4.246;2023-03-19T03:35:00;8.70;;;6.00;;
23155;SDS011;11746;50.876;4.246;2023-03-19T03:37:26;8.45;;;6.45;;
23155;SDS011;11746;50.876;4.246;2023-03-19T03:39:51;8.32;;;6.68;;
23155;SDS011;11746;50.876;4.246;2023-03-19T03:42:18;8.18;;;6.82;;
23155;SDS011;11746;50.876;4.246;2023-03-19T03:44:43;9.00;;;6.45;;
23155;SDS011;11746;50.876;4.246;2023-03-19T03:47:14;9.70;;;6.68;;
23155;SDS011;11746;50.876;4.246;2023-03-19T03:49:40;8.40;;;6.55;;
23155;SDS011;11746;50.876;4.246;2023-03-19T03:52:08;9.57;;;7.40;;
23155;SDS011;11746;50.876;4.246;2023-03-19T03:54:34;12.70;;;7.07;;
23155;SDS011;11746;50.876;4.246;2023-03-19T03:56:59;7.88;;;6.07;;
23155;SDS011;11746;50.876;4.246;2023-03-19T03:59:28;9.85;;;6.93;;
23155;SDS011;11746;50.876;4.246;2023-03-19T04:01:54;9.35;;;6.53;;
23155;SDS011;11746;50.876;4.246;2023-03-19T04:04:19;8.00;;;6.47;;
23155;SDS011;11746;50.876;4.246;2023-03-19T04:06:45;10.52;;;7.70;;
23155;SDS011;11746;50.876;4.246;2023-03-19T04:09:11;8.13;;;6.75;;
23155;SDS011;11746;50.876;4.246;2023-03-19T04:11:41;8.25;;;6.65;;
23155;SDS011;11746;50.876;4.246;2023-03-19T04:14:09;10.35;;;6.82;;
23155;SDS011;11746;50.876;4.246;2023-03-19T04:16:35;9.13;;;7.15;;
23155;SDS011;11746;50.876;4.246;2023-03-19T04:19:00;9.63;;;7.50;;
23155;SDS011;11746;50.876;4.246;2023-03-19T04:21:26;10.02;;;7.30;;
23155;SDS011;11746;50.876;4.246;2023-03-19T04:23:53;8.75;;;7.13;;
23155;SDS011;11746;50.876;4.246;2023-03-19T04:26:21;10.30;;;7.30;;
23155;SDS011;11746;50.876;4.246;2023-03-19T04:28:47;10.95;;;7.18;;
23155;SDS011;11746;50.876;4.246;2023-03-19T04:31:15;9.65;;;7.30;;
23155;SDS011;11746;50.876;4.246;2023-03-19T04:33:41;9.32;;;7.65;;
23155;SDS011;11746;50.876;4.246;2023-03-19T04:36:09;10.30;;;7.53;;
23155;SDS011;11746;50.876;4.246;2023-03-19T04:38:35;12.18;;;7.60;;
23155;SDS011;11746;50.876;4.246;2023-03-19T04:41:03;10.23;;;6.45;;
23155;SDS011;11746;50.876;4.246;2023-03-19T04:43:31;9.75;;;6.43;;
23155;SDS011;11746;50.876;4.246;2023-03-19T04:45:56;11.25;;;6.60;;
23155;SDS011;11746;50.876;4.246;2023-03-19T04:48:22;7.95;;;6.38;;
23155;SDS011;11746;50.876;4.246;2023-03-19T04:50:48;8.82;;;6.82;;
23155;SDS011;11746;50.876;4.246;2023-03-19T04:53:16;9.63;;;6.65;;
23155;SDS011;11746;50.876;4.246;2023-03-19T04:55:44;10.43;;;6.18;;
23155;SDS011;11746;50.876;4.246;2023-03-19T04:58:12;11.02;;;7.20;;
23155;SDS011;11746;50.876;4.246;2023-03-19T05:00:38;9.13;;;6.40;;
23155;SDS011;11746;50.876;4.246;2023-03-19T05:03:04;12.00;;;6.93;;
23155;SDS011;11746;50.876;4.246;2023-03-19T05:05:30;10.48;;;7.00;;
23155;SDS011;11746;50.876;4.246;2023-03-19T05:07:56;12.10;;;7.40;;
23155;SDS011;11746;50.876;4.246;2023-03-19T05:10:22;10.55;;;7.00;;
23155;SDS011;11746;50.876;4.246;2023-03-19T05:12:50;9.52;;;6.78;;
23155;SDS011;11746;50.876;4.246;2023-03-19T05:15:18;11.57;;;6.78;;
23155;SDS011;11746;50.876;4.246;2023-03-19T05:17:44;9.75;;;6.78;;
23155;SDS011;11746;50.876;4.246;2023-03-19T05:20:12;11.25;;;6.90;;
23155;SDS011;11746;50.876;4.246;2023-03-19T05:22:40;11.63;;;7.53;;
23155;SDS011;11746;50.876;4.246;2023-03-19T05:25:06;11.10;;;7.50;;
23155;SDS011;11746;50.876;4.246;2023-03-19T05:27:32;9.82;;;7.22;;
23155;SDS011;11746;50.876;4.246;2023-03-19T05:29:58;10.20;;;6.93;;
23155;SDS011;11746;50.876;4.246;2023-03-19T05:32:26;10.18;;;6.72;;
23155;SDS011;11746;50.876;4.246;2023-03-19T05:34:52;11.88;;;6.68;;
23155;SDS011;11746;50.876;4.246;2023-03-19T05:37:17;10.25;;;6.93;;
23155;SDS011;11746;50.876;4.246;2023-03-19T05:39:46;10.05;;;5.78;;
23155;SDS011;11746;50.876;4.246;2023-03-19T05:42:14;13.98;;;6.40;;
23155;SDS011;11746;50.876;4.246;2023-03-19T05:44:40;11.07;;;6.15;;
23155;SDS011;11746;50.876;4.246;2023-03-19T05:47:06;9.27;;;6.00;;
23155;SDS011;11746;50.876;4.246;2023-03-19T05:49:33;12.55;;;6.32;;
23155;SDS011;11746;50.876;4.246;2023-03-19T05:51:58;8.15;;;5.15;;
23155;SDS011;11746;50.876;4.246;2023-03-19T05:54:24;10.95;;;5.85;;
23155;SDS011;11746;50.876;4.246;2023-03-19T05:56:52;13.23;;;5.90;;
23155;SDS011;11746;50.876;4.246;2023-03-19T05:59:20;8.32;;;5.53;;
23155;SDS011;11746;50.876;4.246;2023-03-19T06:01:48;12.55;;;5.75;;
23155;SDS011;11746;50.876;4.246;2023-03-19T06:04:13;9.93;;;5.55;;
23155;SDS011;11746;50.876;4.246;2023-03-19T06:06:39;11.10;;;5.25;;
23155;SDS011;11746;50.876;4.246;2023-03-19T06:09:07;9.32;;;5.57;;
23155;SDS011;11746;50.876;4.246;2023-03-19T06:11:35;8.73;;;5.68;;
23155;SDS011;11746;50.876;4.246;2023-03-19T06:14:06;10.63;;;5.68;;
23155;SDS011;11746;50.876;4.246;2023-03-19T06:16:33;12.93;;;6.07;;
23155;SDS011;11746;50.876;4.246;2023-03-19T06:19:01;10.48;;;5.65;;
23155;SDS011;11746;50.876;4.246;2023-03-19T06:21:27;8.50;;;6.10;;
23155;SDS011;11746;50.876;4.246;2023-03-19T06:23:54;12.50;;;5.90;;
23155;SDS011;11746;50.876;4.246;2023-03-19T06:26:20;10.48;;;5.95;;
23155;SDS011;11746;50.876;4.246;2023-03-19T06:28:49;11.00;;;5.28;;
23155;SDS011;11746;50.876;4.246;2023-03-19T06:31:15;9.23;;;4.90;;
23155;SDS011;11746;50.876;4.246;2023-03-19T06:33:41;9.55;;;4.60;;
23155;SDS011;11746;50.876;4.246;2023-03-19T06:36:09;8.45;;;4.70;;
23155;SDS011;11746;50.876;4.246;2023-03-19T06:38:38;9.68;;;4.60;;
23155;SDS011;11746;50.876;4.246;2023-03-19T06:41:04;11.85;;;5.05;;
23155;SDS011;11746;50.876;4.246;2023-03-19T06:43:31;13.00;;;4.65;;
23155;SDS011;11746;50.876;4.246;2023-03-19T06:46:01;7.95;;;4.30;;
23155;SDS011;11746;50.876;4.246;2023-03-19T06:48:31;8.80;;;4.30;;
23155;SDS011;11746;50.876;4.246;2023-03-19T06:50:57;8.32;;;4.15;;
23155;SDS011;11746;50.876;4.246;2023-03-19T06:53:23;8.95;;;4.70;;
23155;SDS011;11746;50.876;4.246;2023-03-19T06:55:48;7.18;;;4.15;;
23155;SDS011;11746;50.876;4.246;2023-03-19T06:58:14;10.90;;;4.28;;
23155;SDS011;11746;50.876;4.246;2023-03-19T07:00:42;13.23;;;4.93;;
23155;SDS011;11746;50.876;4.246;2023-03-19T07:03:08;6.75;;;4.15;;
23155;SDS011;11746;50.876;4.246;2023-03-19T07:05:34;8.38;;;4.10;;
23155;SDS011;11746;50.876;4.246;2023-03-19T07:08:00;9.10;;;4.20;;
23155;SDS011;11746;50.876;4.246;2023-03-19T07:10:28;9.55;;;4.43;;
23155;SDS011;11746;50.876;4.246;2023-03-19T07:12:56;10.32;;;4.20;;
23155;SDS011;11746;50.876;4.246;2023-03-19T07:15:22;11.55;;;3.55;;
23155;SDS011;11746;50.876;4.246;2023-03-19T07:17:49;10.85;;;4.18;;
23155;SDS011;11746;50.876;4.246;2023-03-19T07:20:19;12.52;;;4.18;;
23155;SDS011;11746;50.876;4.246;2023-03-19T07:22:45;8.40;;;3.88;;
23155;SDS011;11746;50.876;4.246;2023-03-19T07:25:13;7.60;;;3.50;;
23155;SDS011;11746;50.876;4.246;2023-03-19T07:27:39;9.77;;;4.00;;
23155;SDS011;11746;50.876;4.246;2023-03-19T07:30:05;11.25;;;3.83;;
23155;SDS011;11746;50.876;4.246;2023-03-19T07:32:31;13.80;;;4.35;;
23155;SDS011;11746;50.876;4.246;2023-03-19T07:34:59;8.07;;;3.42;;
23155;SDS011;11746;50.876;4.246;2023-03-19T07:37:24;12.27;;;4.10;;
23155;SDS011;11746;50.876;4.246;2023-03-19T07:39:52;15.30;;;4.00;;
23155;SDS011;11746;50.876;4.246;2023-03-19T07:42:18;10.30;;;3.72;;
23155;SDS011;11746;50.876;4.246;2023-03-19T07:44:46;11.93;;;4.32;;
23155;SDS011;11746;50.876;4.246;2023-03-19T07:47:11;12.75;;;3.97;;
23155;SDS011;11746;50.876;4.246;2023-03-19T07:49:37;12.07;;;4.55;;
23155;SDS011;11746;50.876;4.246;2023-03-19T07:52:02;9.13;;;4.10;;
23155;SDS011;11746;50.876;4.246;2023-03-19T07:54:28;14.13;;;5.00;;
23155;SDS011;11746;50.876;4.246;2023-03-19T07:56:57;10.80;;;4.80;;
23155;SDS011;11746;50.876;4.246;2023-03-19T07:59:23;11.68;;;4.45;;
23155;SDS011;11746;50.876;4.246;2023-03-19T08:01:49;11.32;;;4.25;;
23155;SDS011;11746;50.876;4.246;2023-03-19T08:04:14;12.80;;;4.53;;
23155;SDS011;11746;50.876;4.246;2023-03-19T08:06:42;9.77;;;4.15;;
23155;SDS011;11746;50.876;4.246;2023-03-19T08:09:10;11.30;;;4.50;;
23155;SDS011;11746;50.876;4.246;2023-03-19T08:11:38;11.57;;;4.47;;
23155;SDS011;11746;50.876;4.246;2023-03-19T08:14:04;10.50;;;4.82;;
23155;SDS011;11746;50.876;4.246;2023-03-19T08:16:30;12.70;;;4.60;;
23155;SDS011;11746;50.876;4.246;2023-03-19T08:18:56;9.52;;;4.88;;
23155;SDS011;11746;50.876;4.246;2023-03-19T08:21:21;10.98;;;3.95;;
23155;SDS011;11746;50.876;4.246;2023-03-19T08:23:47;12.45;;;4.70;;
23155;SDS011;11746;50.876;4.246;2023-03-19T08:26:12;15.63;;;5.00;;
23155;SDS011;11746;50.876;4.246;2023-03-19T08:28:41;12.82;;;4.63;;
23155;SDS011;11746;50.876;4.246;2023-03-19T08:31:07;15.23;;;4.55;;
23155;SDS011;11746;50.876;4.246;2023-03-19T08:33:34;10.38;;;4.13;;
23155;SDS011;11746;50.876;4.246;2023-03-19T08:36:12;12.48;;;4.32;;
23155;SDS011;11746;50.876;4.246;2023-03-19T08:38:40;14.63;;;4.25;;
23155;SDS011;11746;50.876;4.246;2023-03-19T08:41:07;14.85;;;4.50;;
23155;SDS011;11746;50.876;4.246;2023-03-19T08:43:33;15.32;;;4.03;;
23155;SDS011;11746;50.876;4.246;2023-03-19T08:46:02;13.13;;;4.25;;
23155;SDS011;11746;50.876;4.246;2023-03-19T08:48:31;10.38;;;3.78;;
23155;SDS011;11746;50.876;4.246;2023-03-19T08:51:00;13.32;;;4.53;;
23155;SDS011;11746;50.876;4.246;2023-03-19T08:53:27;13.48;;;4.18;;
23155;SDS011;11746;50.876;4.246;2023-03-19T08:55:54;11.35;;;4.05;;
23155;SDS011;11746;50.876;4.246;2023-03-19T08:58:23;16.42;;;4.88;;
23155;SDS011;11746;50.876;4.246;2023-03-19T09:00:50;11.73;;;3.70;;
23155;SDS011;11746;50.876;4.246;2023-03-19T09:03:17;12.32;;;4.32;;
23155;SDS011;11746;50.876;4.246;2023-03-19T09:05:46;11.25;;;4.63;;
23155;SDS011;11746;50.876;4.246;2023-03-19T09:08:12;12.30;;;4.25;;
23155;SDS011;11746;50.876;4.246;2023-03-19T09:10:38;11.70;;;4.10;;
23155;SDS011;11746;50.876;4.246;2023-03-19T09:13:03;15.68;;;3.78;;
23155;SDS011;11746;50.876;4.246;2023-03-19T09:15:31;14.95;;;4.40;;
23155;SDS011;11746;50.876;4.246;2023-03-19T09:17:59;15.13;;;4.05;;
23155;SDS011;11746;50.876;4.246;2023-03-19T09:20:27;12.40;;;4.50;;
23155;SDS011;11746;50.876;4.246;2023-03-19T09:22:53;11.23;;;3.72;;
23155;SDS011;11746;50.876;4.246;2023-03-19T09:25:18;15.75;;;4.05;;
23155;SDS011;11746;50.876;4.246;2023-03-19T09:27:44;15.25;;;4.47;;
23155;SDS011;11746;50.876;4.246;2023-03-19T09:30:12;10.23;;;3.95;;
23155;SDS011;11746;50.876;4.246;2023-03-19T09:32:39;11.98;;;4.13;;
23155;SDS011;11746;50.876;4.246;2023-03-19T09:35:05;13.13;;;4.13;;
23155;SDS011;11746;50.876;4.246;2023-03-19T09:37:38;11.40;;;3.90;;
23155;SDS011;11746;50.876;4.246;2023-03-19T09:40:04;10.98;;;3.95;;
23155;SDS011;11746;50.876;4.246;2023-03-19T09:45:14;12.77;;;4.00;;
23155;SDS011;11746;50.876;4.246;2023-03-19T09:47:42;13.18;;;3.67;;
23155;SDS011;11746;50.876;4.246;2023-03-19T09:50:20;11.32;;;4.22;;
23155;SDS011;11746;50.876;4.246;2023-03-19T09:52:55;12.40;;;4.10;;
23155;SDS011;11746;50.876;4.246;2023-03-19T09:57:59;11.32;;;3.85;;
23155;SDS011;11746;50.876;4.246;2023-03-19T10:00:29;12.88;;;4.80;;
23155;SDS011;11746;50.876;4.246;2023-03-19T10:06:20;11.48;;;4.40;;
23155;SDS011;11746;50.876;4.246;2023-03-19T10:14:42;12.18;;;4.07;;
23155;SDS011;11746;50.876;4.246;2023-03-19T10:17:31;19.10;;;4.43;;
23155;SDS011;11746;50.876;4.246;2023-03-19T10:25:56;16.40;;;3.80;;
23155;SDS011;11746;50.876;4.246;2023-03-19T10:28:27;11.38;;;3.17;;
23155;SDS011;11746;50.876;4.246;2023-03-19T10:36:49;13.93;;;5.15;;
23155;SDS011;11746;50.876;4.246;2023-03-19T10:39:37;13.70;;;5.70;;
23155;SDS011;11746;50.876;4.246;2023-03-19T10:42:15;18.98;;;6.72;;
23155;SDS011;11746;50.876;4.246;2023-03-19T10:44:51;21.23;;;8.30;;
23155;SDS011;11746;50.876;4.246;2023-03-19T10:47:41;19.90;;;8.55;;
23155;SDS011;11746;50.876;4.246;2023-03-19T10:50:18;21.63;;;8.88;;
23155;SDS011;11746;50.876;4.246;2023-03-19T10:52:50;20.45;;;10.63;;
23155;SDS011;11746;50.876;4.246;2023-03-19T10:55:24;19.85;;;11.18;;
23155;SDS011;11746;50.876;4.246;2023-03-19T10:57:55;20.65;;;11.27;;
23155;SDS011;11746;50.876;4.246;2023-03-19T11:01:01;23.20;;;12.35;;
23155;SDS011;11746;50.876;4.246;2023-03-19T11:03:39;28.10;;;13.50;;
23155;SDS011;11746;50.876;4.246;2023-03-19T11:06:16;20.92;;;12.63;;
23155;SDS011;11746;50.876;4.246;2023-03-19T11:08:51;22.60;;;13.65;;
23155;SDS011;11746;50.876;4.246;2023-03-19T11:14:07;25.40;;;13.70;;
23155;SDS011;11746;50.876;4.246;2023-03-19T11:16:55;25.38;;;12.05;;
23155;SDS011;11746;50.876;4.246;2023-03-19T11:19:25;22.80;;;13.32;;
23155;SDS011;11746;50.876;4.246;2023-03-19T11:21:59;23.85;;;13.73;;
23155;SDS011;11746;50.876;4.246;2023-03-19T11:24:37;22.33;;;13.80;;
23155;SDS011;11746;50.876;4.246;2023-03-19T11:27:07;23.42;;;13.50;;
23155;SDS011;11746;50.876;4.246;2023-03-19T11:29:39;22.63;;;14.23;;
23155;SDS011;11746;50.876;4.246;2023-03-19T11:35:14;18.02;;;11.50;;
23155;SDS011;11746;50.876;4.246;2023-03-19T11:37:56;20.25;;;12.43;;
23155;SDS011;11746;50.876;4.246;2023-03-19T11:45:53;15.23;;;10.18;;
23155;SDS011;11746;50.876;4.246;2023-03-19T11:48:36;16.25;;;9.98;;
23155;SDS011;11746;50.876;4.246;2023-03-19T11:53:41;18.27;;;10.23;;
23155;SDS011;11746;50.876;4.246;2023-03-19T12:35:52;20.48;;;10.43;;
23155;SDS011;11746;50.876;4.246;2023-03-19T12:41:09;18.65;;;10.88;;
23155;SDS011;11746;50.876;4.246;2023-03-19T12:51:48;18.20;;;10.50;;
23155;SDS011;11746;50.876;4.246;2023-03-19T12:54:25;14.70;;;10.13;;
23155;SDS011;11746;50.876;4.246;2023-03-19T12:57:13;15.32;;;9.70;;
23155;SDS011;11746;50.876;4.246;2023-03-19T13:10:22;15.63;;;9.57;;
23155;SDS011;11746;50.876;4.246;2023-03-19T13:12:50;14.23;;;8.80;;
23155;SDS011;11746;50.876;4.246;2023-03-19T13:23:34;6.70;;;4.55;;
23155;SDS011;11746;50.876;4.246;2023-03-19T13:26:02;6.40;;;4.75;;
23155;SDS011;11746;50.876;4.246;2023-03-19T13:28:34;7.38;;;5.15;;
23155;SDS011;11746;50.876;4.246;2023-03-19T13:33:29;8.57;;;4.15;;
23155;SDS011;11746;50.876;4.246;2023-03-19T13:35:59;7.10;;;4.18;;
23155;SDS011;11746;50.876;4.246;2023-03-19T13:38:37;8.32;;;4.78;;
23155;SDS011;11746;50.876;4.246;2023-03-19T13:43:59;9.52;;;5.40;;
23155;SDS011;11746;50.876;4.246;2023-03-19T13:46:46;7.18;;;4.85;;
23155;SDS011;11746;50.876;4.246;2023-03-19T13:51:46;9.88;;;5.50;;
23155;SDS011;11746;50.876;4.246;2023-03-19T14:07:29;8.82;;;5.93;;
23155;SDS011;11746;50.876;4.246;2023-03-19T14:12:44;8.65;;;6.28;;
23155;SDS011;11746;50.876;4.246;2023-03-19T14:15:19;10.93;;;5.70;;
23155;SDS011;11746;50.876;4.246;2023-03-19T14:20:26;8.05;;;5.13;;
23155;SDS011;11746;50.876;4.246;2023-03-19T14:28:23;11.00;;;6.72;;
23155;SDS011;11746;50.876;4.246;2023-03-19T14:30:58;7.70;;;5.75;;
23155;SDS011;11746;50.876;4.246;2023-03-19T14:36:16;6.13;;;4.32;;
23155;SDS011;11746;50.876;4.246;2023-03-19T14:38:50;8.05;;;4.72;;
23155;SDS011;11746;50.876;4.246;2023-03-19T14:41:24;7.80;;;5.10;;
23155;SDS011;11746;50.876;4.246;2023-03-19T14:50:02;5.82;;;3.75;;
23155;SDS011;11746;50.876;4.246;2023-03-19T14:52:57;5.57;;;3.20;;
23155;SDS011;11746;50.876;4.246;2023-03-19T14:55:34;6.30;;;3.40;;
23155;SDS011;11746;50.876;4.246;2023-03-19T14:58:02;7.07;;;2.88;;
23155;SDS011;11746;50.876;4.246;2023-03-19T15:00:28;6.28;;;3.20;;
23155;SDS011;11746;50.876;4.246;2023-03-19T15:03:12;6.38;;;3.50;;
23155;SDS011;11746;50.876;4.246;2023-03-19T15:05:47;7.20;;;3.60;;
23155;SDS011;11746;50.876;4.246;2023-03-19T15:08:15;7.18;;;4.07;;
23155;SDS011;11746;50.876;4.246;2023-03-19T15:10:53;10.15;;;3.92;;
23155;SDS011;11746;50.876;4.246;2023-03-19T15:18:43;7.97;;;4.30;;
23155;SDS011;11746;50.876;4.246;2023-03-19T15:21:12;7.35;;;4.45;;
23155;SDS011;11746;50.876;4.246;2023-03-19T15:23:40;10.27;;;5.43;;
23155;SDS011;11746;50.876;4.246;2023-03-19T15:26:10;8.77;;;4.57;;
23155;SDS011;11746;50.876;4.246;2023-03-19T15:28:44;8.80;;;4.43;;
23155;SDS011;11746;50.876;4.246;2023-03-19T15:31:16;7.22;;;4.22;;
23155;SDS011;11746;50.876;4.246;2023-03-19T15:33:43;7.95;;;4.47;;
23155;SDS011;11746;50.876;4.246;2023-03-19T15:38:59;8.45;;;4.18;;
23155;SDS011;11746;50.876;4.246;2023-03-19T15:41:29;8.90;;;4.63;;
23155;SDS011;11746;50.876;4.246;2023-03-19T15:44:05;9.73;;;4.72;;
23155;SDS011;11746;50.876;4.246;2023-03-19T15:46:34;6.18;;;4.50;;
23155;SDS011;11746;50.876;4.246;2023-03-19T15:49:07;8.30;;;4.45;;
23155;SDS011;11746;50.876;4.246;2023-03-19T15:51:43;7.30;;;4.88;;
23155;SDS011;11746;50.876;4.246;2023-03-19T15:54:15;8.25;;;5.22;;
23155;SDS011;11746;50.876;4.246;2023-03-19T15:56:44;9.32;;;5.45;;
23155;SDS011;11746;50.876;4.246;2023-03-19T15:59:11;9.35;;;5.20;;
23155;SDS011;11746;50.876;4.246;2023-03-19T16:01:37;12.57;;;5.90;;
23155;SDS011;11746;50.876;4.246;2023-03-19T16:04:07;10.65;;;5.97;;
23155;SDS011;11746;50.876;4.246;2023-03-19T16:06:40;9.18;;;5.30;;
23155;SDS011;11746;50.876;4.246;2023-03-19T16:11:37;8.25;;;5.25;;
23155;SDS011;11746;50.876;4.246;2023-03-19T16:17:10;12.02;;;5.88;;
23155;SDS011;11746;50.876;4.246;2023-03-19T16:19:37;8.80;;;5.60;;
23155;SDS011;11746;50.876;4.246;2023-03-19T16:22:16;11.40;;;5.38;;
23155;SDS011;11746;50.876;4.246;2023-03-19T16:24:49;11.23;;;5.38;;
23155;SDS011;11746;50.876;4.246;2023-03-19T16:27:17;9.43;;;5.10;;
23155;SDS011;11746;50.876;4.246;2023-03-19T16:29:56;11.68;;;5.45;;
23155;SDS011;11746;50.876;4.246;2023-03-19T16:32:26;9.77;;;5.97;;
23155;SDS011;11746;50.876;4.246;2023-03-19T16:35:03;9.20;;;5.28;;
23155;SDS011;11746;50.876;4.246;2023-03-19T16:37:45;10.60;;;5.20;;
23155;SDS011;11746;50.876;4.246;2023-03-19T16:47:39;6.53;;;4.20;;
23155;SDS011;11746;50.876;4.246;2023-03-19T16:50:11;10.63;;;5.15;;
23155;SDS011;11746;50.876;4.246;2023-03-19T16:52:40;7.05;;;3.83;;
23155;SDS011;11746;50.876;4.246;2023-03-19T16:58:02;8.65;;;4.03;;
23155;SDS011;11746;50.876;4.246;2023-03-19T17:00:31;8.05;;;3.72;;
23155;SDS011;11746;50.876;4.246;2023-03-19T17:02:58;7.78;;;4.32;;
23155;SDS011;11746;50.876;4.246;2023-03-19T17:05:27;6.70;;;4.05;;
23155;SDS011;11746;50.876;4.246;2023-03-19T17:07:53;7.03;;;4.32;;
23155;SDS011;11746;50.876;4.246;2023-03-19T17:10:20;6.75;;;3.78;;
23155;SDS011;11746;50.876;4.246;2023-03-19T17:12:50;6.78;;;4.20;;
23155;SDS011;11746;50.876;4.246;2023-03-19T17:15:21;11.18;;;4.80;;
23155;SDS011;11746;50.876;4.246;2023-03-19T17:17:49;7.28;;;3.80;;
23155;SDS011;11746;50.876;4.246;2023-03-19T17:20:18;8.35;;;4.07;;
23155;SDS011;11746;50.876;4.246;2023-03-19T17:22:48;5.28;;;3.80;;
23155;SDS011;11746;50.876;4.246;2023-03-19T17:25:14;7.35;;;4.07;;
23155;SDS011;11746;50.876;4.246;2023-03-19T17:27:42;4.97;;;3.60;;
23155;SDS011;11746;50.876;4.246;2023-03-19T17:30:11;10.95;;;4.95;;
23155;SDS011;11746;50.876;4.246;2023-03-19T17:32:37;6.70;;;3.40;;
23155;SDS011;11746;50.876;4.246;2023-03-19T17:35:12;10.60;;;4.10;;
23155;SDS011;11746;50.876;4.246;2023-03-19T17:37:43;7.43;;;4.70;;
23155;SDS011;11746;50.876;4.246;2023-03-19T17:40:19;5.05;;;3.45;;
23155;SDS011;11746;50.876;4.246;2023-03-19T17:42:53;10.55;;;4.50;;
23155;SDS011;11746;50.876;4.246;2023-03-19T17:45:22;10.13;;;4.60;;
23155;SDS011;11746;50.876;4.246;2023-03-19T17:47:54;7.43;;;3.85;;
23155;SDS011;11746;50.876;4.246;2023-03-19T17:50:25;6.78;;;4.15;;
23155;SDS011;11746;50.876;4.246;2023-03-19T17:52:57;12.77;;;5.15;;